Time;durP1;ratioP1;P1;durP2;ratioP2;P2;SDS_P1;SDS_P2;PMS_P1;PMS_P2;Temp;Humidity;BMP_temperature;BMP_pressure;BME280_temperature;BME280_humidity;BME280_pressure;Samples;Min_cycle;Max_cycle;Signal;HPM_P1;HPM_P2
2022/02/26 00:01:25;;;;;;;1999.90;999.90;;;;;;;-0.70;56.44;102147.28;5021319;27;97641;-72
2022/02/26 00:03:52;;;;;;;1999.90;999.90;;;;;;;-0.73;56.84;102147.91;5023872;27;97040;-74
2022/02/26 00:06:20;;;;;;;1999.90;999.90;;;;;;;-0.70;56.79;102152.50;5022715;28;99582;-73
2022/02/26 00:08:49;;;;;;;1999.90;999.90;;;;;;;-0.72;56.31;102157.56;5020587;27;98134;-72
2022/02/26 00:11:17;;;;;;;1999.90;999.90;;;;;;;-0.73;56.47;102160.06;5019817;28;98410;-73
2022/02/26 00:13:44;;;;;;;1999.90;999.90;;;;;;;-0.73;56.29;102158.38;5020167;27;97436;-73
2022/02/26 00:16:12;;;;;;;1999.90;999.90;;;;;;;-0.77;57.07;102156.25;5017659;28;97942;-74
2022/02/26 00:18:41;;;;;;;1999.90;999.90;;;;;;;-0.76;56.58;102172.88;5020598;28;99438;-73
2022/02/26 00:21:08;;;;;;;1999.90;999.90;;;;;;;-0.77;56.68;102171.94;5028113;27;97601;-71
2022/02/26 00:23:36;;;;;;;1999.90;999.90;;;;;;;-0.73;56.54;102184.50;5027024;28;97825;-73
2022/02/26 00:26:05;;;;;;;1999.90;999.90;;;;;;;-0.75;56.93;102182.53;5029653;27;96811;-73
2022/02/26 00:28:34;;;;;;;1999.90;999.90;;;;;;;-0.76;56.33;102183.31;5025603;28;99634;-71
2022/02/26 00:31:01;;;;;;;1999.90;999.90;;;;;;;-0.80;57.27;102187.38;5023947;28;98510;-72
2022/02/26 00:33:30;;;;;;;1999.90;999.90;;;;;;;-0.78;56.56;102191.94;5004134;28;97259;-72
2022/02/26 00:35:59;;;;;;;1999.90;999.90;;;;;;;-0.80;57.04;102192.59;5021893;28;96743;-73
2022/02/26 00:38:26;;;;;;;1999.90;999.90;;;;;;;-0.78;57.00;102196.25;5022378;28;99300;-74
2022/02/26 00:40:55;;;;;;;1999.90;999.90;;;;;;;-0.75;56.71;102195.59;5022085;28;97763;-72
2022/02/26 00:43:24;;;;;;;1999.90;999.90;;;;;;;-0.74;56.92;102198.38;5022549;27;100612;-74
2022/02/26 00:45:52;;;;;;;1999.90;999.90;;;;;;;-0.70;56.39;102196.94;5019642;27;96976;-71
2022/02/26 00:49:46;;;;;;;1999.90;999.90;;;;;;;-0.66;56.35;102202.56;5019490;27;100113;-72
2022/02/26 00:51:07;;;;;;;1999.90;999.90;;;;;;;-0.62;56.47;102211.59;5019781;28;100217;-73
2022/02/26 00:53:34;;;;;;;1999.90;999.90;;;;;;;-0.59;56.43;102220.63;5023746;27;97760;-70
2022/02/26 00:56:03;;;;;;;1999.90;999.90;;;;;;;-0.60;56.18;102221.41;5021229;27;97662;-71
2022/02/26 00:58:33;;;;;;;1999.90;999.90;;;;;;;-0.59;56.32;102220.63;5020668;27;98379;-72
2022/02/26 01:01:01;;;;;;;1999.90;999.90;;;;;;;-0.58;56.09;102217.25;5021149;27;99145;-72
2022/02/26 01:03:31;;;;;;;1999.90;999.90;;;;;;;-0.58;56.65;102225.06;5022113;27;97059;-70
2022/02/26 01:05:59;;;;;;;1999.90;999.90;;;;;;;-0.57;56.35;102229.50;5021753;28;97761;-70
2022/02/26 01:08:26;;;;;;;1999.90;999.90;;;;;;;-0.57;56.32;102226.91;5021204;28;97607;-71
2022/02/26 01:10:54;;;;;;;1999.90;999.90;;;;;;;-0.55;56.32;102222.72;5023267;27;98268;-74
2022/02/26 01:13:23;;;;;;;1999.90;999.90;;;;;;;-0.54;56.34;102224.56;5019763;27;98518;-75
2022/02/26 01:15:52;;;;;;;1999.90;999.90;;;;;;;-0.54;56.38;102240.25;5021820;28;97249;-73
2022/02/26 01:18:20;;;;;;;1999.90;999.90;;;;;;;-0.50;56.26;102241.44;5021493;28;97997;-72
2022/02/26 01:20:47;;;;;;;1999.90;999.90;;;;;;;-0.50;56.34;102231.00;5022030;28;97775;-72
2022/02/26 01:23:15;;;;;;;1999.90;999.90;;;;;;;-0.50;56.51;102234.50;5022084;27;97311;-72
2022/02/26 01:25:43;;;;;;;1999.90;999.90;;;;;;;-0.48;56.07;102246.00;5025669;28;98183;-73
2022/02/26 01:28:11;;;;;;;1999.90;999.90;;;;;;;-0.45;56.09;102251.53;5023166;28;99941;-71
2022/02/26 01:30:38;;;;;;;1999.90;999.90;;;;;;;-0.44;56.10;102252.41;5025099;28;99241;-72
2022/02/26 01:33:08;;;;;;;1999.90;999.90;;;;;;;-0.41;56.13;102257.94;5023776;27;96917;-71
2022/02/26 01:35:35;;;;;;;1999.90;999.90;;;;;;;-0.43;56.06;102260.41;5025005;28;97376;-73
2022/02/26 01:38:04;;;;;;;1999.90;999.90;;;;;;;-0.42;55.93;102256.09;5025254;28;97715;-72
2022/02/26 01:40:33;;;;;;;1999.90;999.90;;;;;;;-0.43;55.84;102254.28;5025429;27;99126;-71
2022/02/26 01:43:03;;;;;;;1999.90;999.90;;;;;;;-0.45;56.14;102255.84;5025570;28;97328;-70
2022/02/26 01:45:30;;;;;;;1999.90;999.90;;;;;;;-0.46;56.04;102259.22;5026549;27;97150;-76
2022/02/26 01:47:58;;;;;;;1999.90;999.90;;;;;;;-0.43;55.79;102255.16;5026127;28;98491;-72
2022/02/26 01:50:29;;;;;;;1999.90;999.90;;;;;;;-0.41;55.91;102266.69;5027446;28;98873;-73
2022/02/26 01:52:58;;;;;;;1999.90;999.90;;;;;;;-0.39;55.92;102274.69;5026743;27;96901;-73
2022/02/26 01:55:26;;;;;;;1999.90;999.90;;;;;;;-0.41;55.97;102269.28;5023885;27;97042;-73
2022/02/26 01:57:55;;;;;;;1999.90;999.90;;;;;;;-0.40;55.72;102268.53;5022355;28;97813;-74
2022/02/26 02:00:23;;;;;;;1999.90;999.90;;;;;;;-0.42;56.03;102270.09;5021401;27;99520;-73
2022/02/26 02:02:53;;;;;;;1999.90;999.90;;;;;;;-0.40;55.69;102278.06;5022218;27;98598;-73
2022/02/26 02:05:21;;;;;;;1999.90;999.90;;;;;;;-0.45;56.25;102267.22;5022503;28;97107;-73
2022/02/26 02:07:50;;;;;;;1999.90;999.90;;;;;;;-0.45;55.91;102267.22;5023110;28;97662;-73
2022/02/26 02:10:18;;;;;;;1999.90;999.90;;;;;;;-0.43;55.82;102276.09;5024158;27;98459;-72
2022/02/26 02:12:46;;;;;;;1999.90;999.90;;;;;;;-0.48;56.30;102282.63;5005358;28;98122;-73
2022/02/26 02:15:14;;;;;;;1999.90;999.90;;;;;;;-0.50;56.37;102292.00;5021405;28;97548;-71
2022/02/26 02:17:42;;;;;;;1999.90;999.90;;;;;;;-0.51;56.52;102290.19;5023225;28;97615;-73
2022/02/26 02:20:10;;;;;;;1999.90;999.90;;;;;;;-0.49;56.44;102290.31;5019205;28;100347;-71
2022/02/26 02:22:42;;;;;;;1999.90;999.90;;;;;;;-0.50;56.27;102297.25;5021863;27;97128;-72
2022/02/26 02:25:10;;;;;;;1999.90;999.90;;;;;;;-0.52;56.04;102301.41;5024351;27;98650;-72
2022/02/26 02:27:38;;;;;;;1999.90;999.90;;;;;;;-0.53;56.45;102294.38;5022009;27;97626;-72
2022/02/26 02:30:07;;;;;;;1999.90;999.90;;;;;;;-0.55;56.15;102293.31;5022446;28;97989;-76
2022/02/26 02:32:35;;;;;;;1999.90;999.90;;;;;;;-0.54;56.48;102297.78;5025732;27;97342;-74
2022/02/26 02:35:03;;;;;;;1999.90;999.90;;;;;;;-0.55;56.06;102298.53;5025603;27;98730;-70
2022/02/26 02:37:30;;;;;;;1999.90;999.90;;;;;;;-0.54;56.40;102303.00;5024625;28;97776;-70
2022/02/26 02:40:00;;;;;;;1999.90;999.90;;;;;;;-0.55;56.64;102310.69;5026646;28;96955;-71
2022/02/26 02:42:28;;;;;;;1999.90;999.90;;;;;;;-0.53;56.07;102322.19;5025549;28;96959;-70
2022/02/26 02:44:55;;;;;;;1999.90;999.90;;;;;;;-0.59;56.36;102317.34;5024096;28;97676;-71
2022/02/26 02:47:24;;;;;;;1999.90;999.90;;;;;;;-0.56;56.48;102321.94;5022351;27;99843;-69
2022/02/26 02:49:52;;;;;;;1999.90;999.90;;;;;;;-0.57;56.37;102323.63;5022613;27;100906;-72
2022/02/26 02:52:21;;;;;;;1999.90;999.90;;;;;;;-0.54;56.62;102321.31;5023341;28;97062;-70
2022/02/26 02:54:49;;;;;;;1999.90;999.90;;;;;;;-0.56;56.50;102346.41;5022972;28;97783;-72
2022/02/26 02:57:19;;;;;;;1999.90;999.90;;;;;;;-0.59;56.48;102330.41;5021625;28;98747;-74
2022/02/26 02:59:46;;;;;;;1999.90;999.90;;;;;;;-0.60;56.65;102333.81;5021374;28;99221;-70
2022/02/26 03:02:14;;;;;;;1999.90;999.90;;;;;;;-0.59;56.82;102353.03;5019471;28;97639;-73
2022/02/26 03:04:42;;;;;;;1999.90;999.90;;;;;;;-0.58;57.05;102344.41;5018226;27;97333;-71
2022/02/26 03:07:10;;;;;;;1999.90;999.90;;;;;;;-0.55;56.98;102348.22;5019453;27;98680;-72
2022/02/26 03:09:38;;;;;;;1999.90;999.90;;;;;;;-0.53;57.13;102349.28;5022102;28;99443;-71
2022/02/26 03:12:08;;;;;;;1999.90;999.90;;;;;;;-0.52;56.53;102352.81;5023883;28;97716;-72
2022/02/26 03:14:37;;;;;;;1999.90;999.90;;;;;;;-0.48;56.12;102360.16;5021473;27;97502;-70
2022/02/26 03:17:05;;;;;;;1999.90;999.90;;;;;;;-0.49;56.59;102364.47;5021615;27;98918;-71
2022/02/26 03:19:33;;;;;;;1999.90;999.90;;;;;;;-0.47;56.32;102351.53;5022046;28;98962;-73
2022/02/26 03:22:01;;;;;;;1999.90;999.90;;;;;;;-0.46;56.24;102358.56;5033586;27;96867;-72
2022/02/26 03:24:32;;;;;;;1999.90;999.90;;;;;;;-0.46;56.63;102362.13;5021806;28;98043;-72
2022/02/26 03:27:02;;;;;;;1999.90;999.90;;;;;;;-0.46;56.42;102359.50;5017508;27;98957;-72
2022/02/26 03:29:29;;;;;;;1999.90;999.90;;;;;;;-0.44;56.63;102375.31;5022973;28;97750;-70
2022/02/26 03:31:59;;;;;;;1999.90;999.90;;;;;;;-0.45;56.41;102371.81;5025553;27;98419;-70
2022/02/26 03:34:32;;;;;;;1999.90;999.90;;;;;;;-0.46;56.63;102374.25;5020291;27;98443;-73
2022/02/26 03:37:01;;;;;;;1999.90;999.90;;;;;;;-0.47;56.58;102373.38;5020295;27;97144;-72
2022/02/26 03:39:31;;;;;;;1999.90;999.90;;;;;;;-0.42;56.78;102373.75;5016151;28;99674;-74
2022/02/26 03:42:00;;;;;;;1999.90;999.90;;;;;;;-0.45;56.43;102365.66;5037153;27;97182;-74
2022/02/26 03:44:28;;;;;;;1999.90;999.90;;;;;;;-0.46;56.65;102369.03;5023081;27;99736;-73
2022/02/26 03:46:59;;;;;;;1999.90;999.90;;;;;;;-0.48;56.49;102374.13;5021602;27;98722;-72
2022/02/26 03:49:28;;;;;;;1999.90;999.90;;;;;;;-0.48;56.79;102386.31;5022002;28;97950;-74
2022/02/26 03:51:56;;;;;;;1999.90;999.90;;;;;;;-0.50;56.73;102388.75;5023933;28;98176;-72
2022/02/26 03:54:24;;;;;;;1999.90;999.90;;;;;;;-0.51;56.55;102391.25;5030868;27;97114;-71
2022/02/26 03:56:52;;;;;;;1999.90;999.90;;;;;;;-0.53;56.83;102395.41;5028574;28;97706;-74
2022/02/26 03:59:19;;;;;;;1999.90;999.90;;;;;;;-0.54;56.84;102409.28;5027617;28;99509;-73
2022/02/26 04:01:47;;;;;;;1999.90;999.90;;;;;;;-0.57;56.75;102416.81;5003890;28;97942;-75
2022/02/26 04:04:17;;;;;;;1999.90;999.90;;;;;;;-0.60;56.92;102409.63;5019624;27;98609;-72
2022/02/26 04:06:45;;;;;;;1999.90;999.90;;;;;;;-0.59;57.22;102427.13;5015748;28;97647;-69
2022/02/26 04:09:13;;;;;;;1999.90;999.90;;;;;;;-0.59;57.31;102419.28;5015336;27;98456;-69
2022/02/26 04:11:41;;;;;;;1999.90;999.90;;;;;;;-0.59;56.97;102421.91;5016851;28;97377;-70
2022/02/26 04:14:08;;;;;;;1999.90;999.90;;;;;;;-0.60;57.16;102420.09;5021406;28;97249;-73
2022/02/26 04:16:36;;;;;;;1999.90;999.90;;;;;;;-0.59;57.17;102429.75;5022363;27;96935;-72
2022/02/26 04:19:04;;;;;;;1999.90;999.90;;;;;;;-0.60;57.16;102435.78;5003988;28;99729;-72
2022/02/26 04:21:34;;;;;;;1999.90;999.90;;;;;;;-0.64;56.95;102431.03;5021983;27;97261;-71
2022/02/26 04:24:01;;;;;;;1999.90;999.90;;;;;;;-0.65;56.88;102428.28;5022782;28;97501;-71
2022/02/26 04:26:29;;;;;;;1999.90;999.90;;;;;;;-0.66;57.21;102442.09;5022728;28;97651;-70
2022/02/26 04:28:57;;;;;;;1999.90;999.90;;;;;;;-0.66;57.19;102443.03;5021332;27;97671;-74
2022/02/26 04:31:25;;;;;;;1999.90;999.90;;;;;;;-0.67;57.22;102443.84;5021839;28;96871;-69
2022/02/26 04:33:53;;;;;;;1999.90;999.90;;;;;;;-0.72;57.94;102442.47;5020947;27;97306;-71
2022/02/26 04:36:21;;;;;;;1999.90;999.90;;;;;;;-0.71;57.81;102449.56;5020784;28;97348;-72
2022/02/26 04:38:50;;;;;;;1999.90;999.90;;;;;;;-0.73;57.85;102450.16;5021807;27;97577;-71
2022/02/26 04:41:18;;;;;;;1999.90;999.90;;;;;;;-0.75;57.47;102452.66;5021520;28;97152;-72
2022/02/26 04:43:46;;;;;;;1999.90;999.90;;;;;;;-0.74;57.32;102457.13;5021887;28;98900;-72
2022/02/26 04:46:14;;;;;;;1999.90;999.90;;;;;;;-0.74;57.25;102466.63;5022575;28;99666;-72
2022/02/26 04:48:42;;;;;;;1999.90;999.90;;;;;;;-0.49;56.76;102469.06;5016794;27;97978;-72
2022/02/26 04:51:09;;;;;;;1999.90;999.90;;;;;;;-0.66;57.70;102463.94;5020538;28;96857;-72
2022/02/26 04:53:38;;;;;;;1999.90;999.90;;;;;;;-0.69;57.71;102466.28;5022338;28;97149;-70
2022/02/26 04:56:08;;;;;;;1999.90;999.90;;;;;;;-0.72;57.92;102468.59;5021443;28;98697;-73
2022/02/26 04:58:37;;;;;;;1999.90;999.90;;;;;;;-0.71;57.91;102477.38;5024530;27;97968;-72
2022/02/26 05:01:05;;;;;;;1999.90;999.90;;;;;;;-0.73;57.91;102486.75;5024088;28;96887;-75
2022/02/26 05:03:33;;;;;;;1999.90;999.90;;;;;;;-0.72;57.82;102479.06;5020843;27;98177;-74
2022/02/26 05:06:01;;;;;;;1999.90;999.90;;;;;;;-0.45;56.84;102481.63;5021426;28;99115;-72
2022/02/26 05:08:29;;;;;;;1999.90;999.90;;;;;;;-0.29;57.27;102492.72;5021150;28;97442;-73
2022/02/26 05:10:56;;;;;;;1999.90;999.90;;;;;;;-0.48;57.63;102499.63;5025940;27;97532;-73
2022/02/26 05:13:26;;;;;;;1999.90;999.90;;;;;;;-0.53;58.14;102510.44;5024177;27;97895;-71
2022/02/26 05:15:53;;;;;;;1999.90;999.90;;;;;;;-0.58;57.86;102503.88;5025118;28;99651;-73
2022/02/26 05:18:21;;;;;;;1999.90;999.90;;;;;;;-0.59;58.12;102502.94;5023068;28;97538;-74
2022/02/26 05:20:49;;;;;;;1999.90;999.90;;;;;;;-0.60;57.80;102522.03;5023465;27;97974;-72
2022/02/26 05:23:17;;;;;;;1999.90;999.90;;;;;;;-0.61;57.96;102520.19;5023189;27;96927;-72
2022/02/26 05:25:45;;;;;;;1999.90;999.90;;;;;;;-0.61;58.00;102529.75;5019679;28;97937;-72
2022/02/26 05:28:12;;;;;;;1999.90;999.90;;;;;;;-0.61;58.20;102540.22;5023408;28;98047;-73
2022/02/26 05:30:41;;;;;;;1999.90;999.90;;;;;;;-0.60;58.07;102536.81;5023152;27;97848;-74
2022/02/26 05:33:09;;;;;;;1999.90;999.90;;;;;;;-0.58;57.77;102549.25;5023664;28;96876;-72
2022/02/26 05:35:37;;;;;;;1999.90;999.90;;;;;;;-0.53;57.48;102560.13;5020545;28;99252;-74
2022/02/26 05:38:05;;;;;;;1999.90;999.90;;;;;;;-0.26;56.96;102554.84;5023860;28;97176;-73
2022/02/26 05:40:33;;;;;;;1999.90;999.90;;;;;;;-0.38;57.85;102554.66;5007172;28;97474;-72
2022/02/26 05:43:00;;;;;;;1999.90;999.90;;;;;;;-0.41;57.85;102569.13;5024162;27;96967;-71
2022/02/26 05:45:28;;;;;;;1999.90;999.90;;;;;;;-0.40;57.72;102566.66;5025376;28;97677;-71
2022/02/26 05:47:57;;;;;;;1999.90;999.90;;;;;;;-0.38;57.61;102572.94;5030563;28;99576;-71
2022/02/26 05:50:25;;;;;;;1999.90;999.90;;;;;;;-0.38;57.34;102577.25;5030140;28;99355;-71
2022/02/26 05:52:52;;;;;;;1999.90;999.90;;;;;;;-0.38;57.46;102580.81;5028292;27;96911;-72
2022/02/26 05:55:20;;;;;;;1999.90;999.90;;;;;;;-0.34;57.53;102584.63;5029527;27;97632;-72
2022/02/26 05:57:48;;;;;;;1999.90;999.90;;;;;;;-0.31;57.41;102595.34;5028982;28;98744;-72
2022/02/26 06:00:16;;;;;;;1999.90;999.90;;;;;;;-0.31;57.18;102601.50;5030189;27;97560;-73
2022/02/26 06:02:44;;;;;;;1999.90;999.90;;;;;;;-0.29;57.50;102599.97;5024245;27;96781;-73
2022/02/26 06:05:14;;;;;;;1999.90;999.90;;;;;;;-0.03;56.71;102608.50;5025624;28;99240;-73
2022/02/26 06:07:42;;;;;;;1999.90;999.90;;;;;;;-0.15;57.52;102611.69;5025539;28;99323;-73
2022/02/26 06:10:10;;;;;;;1999.90;999.90;;;;;;;-0.21;57.63;102609.44;5024138;27;97364;-71
2022/02/26 06:12:37;;;;;;;1999.90;999.90;;;;;;;-0.24;57.57;102621.31;5015271;28;97260;-71
2022/02/26 06:15:06;;;;;;;1999.90;999.90;;;;;;;-0.28;57.92;102612.25;5016098;28;100326;-77
2022/02/26 06:17:36;;;;;;;1999.90;999.90;;;;;;;-0.21;57.56;102616.38;5022735;28;97625;-72
2022/02/26 06:20:04;;;;;;;1999.90;999.90;;;;;;;-0.26;57.52;102621.16;5021090;28;98252;-73
2022/02/26 06:22:34;;;;;;;1999.90;999.90;;;;;;;0.05;56.80;102620.63;5020416;28;98532;-71
2022/02/26 06:25:02;;;;;;;1999.90;999.90;;;;;;;-0.07;57.51;102634.28;5020236;28;99836;-72
2022/02/26 06:27:30;;;;;;;1999.90;999.90;;;;;;;-0.10;57.61;102632.28;5017888;28;99018;-73
2022/02/26 06:29:58;;;;;;;1999.90;999.90;;;;;;;-0.13;58.36;102637.25;5018774;27;97326;-73
2022/02/26 06:32:25;;;;;;;1999.90;999.90;;;;;;;-0.13;57.80;102645.09;5020084;28;97394;-72
2022/02/26 06:34:53;;;;;;;1999.90;999.90;;;;;;;0.19;56.51;102637.63;5018885;27;99303;-70
2022/02/26 06:37:21;;;;;;;1999.90;999.90;;;;;;;0.05;57.55;102641.56;5022588;28;97848;-72
2022/02/26 06:39:50;;;;;;;1999.90;999.90;;;;;;;-0.03;57.56;102637.28;5016742;27;98319;-72
2022/02/26 06:42:18;;;;;;;1999.90;999.90;;;;;;;-0.10;57.73;102649.69;5019363;28;97802;-71
2022/02/26 06:44:46;;;;;;;1999.90;999.90;;;;;;;-0.09;57.70;102654.13;5019625;28;98748;-68
2022/02/26 06:47:14;;;;;;;1999.90;999.90;;;;;;;-0.11;57.80;102654.00;5022404;28;97835;-71
2022/02/26 06:49:42;;;;;;;1999.90;999.90;;;;;;;-0.10;57.73;102658.44;5018072;28;97195;-70
2022/02/26 06:52:10;;;;;;;1999.90;999.90;;;;;;;-0.18;57.88;102664.69;5006457;28;97187;-72
2022/02/26 06:54:38;;;;;;;1999.90;999.90;;;;;;;-0.18;57.90;102662.06;5020427;27;100051;-67
2022/02/26 06:57:25;;;;;;;1999.90;999.90;;;;;;;-0.17;58.03;102673.41;5021345;27;99212;-68
2022/02/26 06:59:53;;;;;;;1999.90;999.90;;;;;;;-0.14;58.19;102673.72;5022819;27;97752;-69
2022/02/26 07:02:20;;;;;;;1999.90;999.90;;;;;;;-0.12;57.84;102683.53;5015379;28;97587;-70
2022/02/26 07:04:48;;;;;;;1999.90;999.90;;;;;;;-0.11;57.74;102685.41;5035940;27;99841;-71
2022/02/26 07:07:16;;;;;;;1999.90;999.90;;;;;;;-0.08;57.68;102689.97;5019384;27;97444;-72
2022/02/26 07:09:46;;;;;;;1999.90;999.90;;;;;;;-0.07;57.67;102695.38;5019002;27;96815;-71
2022/02/26 07:12:16;;;;;;;1999.90;999.90;;;;;;;-0.07;57.67;102698.00;5019917;27;98314;-73
2022/02/26 07:14:45;;;;;;;1999.90;999.90;;;;;;;-0.05;57.64;102709.53;5020097;27;97418;-71
2022/02/26 07:17:14;;;;;;;1999.90;999.90;;;;;;;-0.03;57.67;102715.81;5017372;28;98701;-72
2022/02/26 07:19:41;;;;;;;1999.90;999.90;;;;;;;-0.01;57.44;102719.50;5019264;28;97220;-73
2022/02/26 07:22:09;;;;;;;1999.90;999.90;;;;;;;0.02;57.43;102722.41;5020970;27;97015;-68
2022/02/26 07:24:39;;;;;;;1999.90;999.90;;;;;;;0.07;57.24;102721.16;5018200;27;100326;-70
2022/02/26 07:27:07;;;;;;;1999.90;999.90;;;;;;;0.10;57.28;102724.03;5023357;28;97151;-70
2022/02/26 07:29:35;;;;;;;1999.90;999.90;;;;;;;0.14;57.48;102736.63;5022948;28;97396;-72
2022/02/26 07:32:05;;;;;;;1999.90;999.90;;;;;;;0.15;57.52;102740.19;5024349;28;97605;-72
2022/02/26 07:34:33;;;;;;;1999.90;999.90;;;;;;;0.15;57.12;102751.59;5021128;28;97710;-71
2022/02/26 07:37:00;;;;;;;1999.90;999.90;;;;;;;0.11;57.16;102745.91;5022520;28;99463;-70
2022/02/26 07:39:28;;;;;;;1999.90;999.90;;;;;;;0.09;57.39;102755.31;5020688;28;97461;-72
2022/02/26 07:41:56;;;;;;;1999.90;999.90;;;;;;;0.06;57.13;102755.94;5023074;28;97102;-72
2022/02/26 07:44:24;;;;;;;1999.90;999.90;;;;;;;0.06;57.38;102757.66;5016788;28;98907;-71
2022/02/26 07:46:52;;;;;;;1999.90;999.90;;;;;;;0.08;57.53;102763.94;5020370;27;100883;-78
2022/02/26 07:49:21;;;;;;;1999.90;999.90;;;;;;;0.09;57.38;102765.78;5021620;28;98636;-74
2022/02/26 07:51:49;;;;;;;1999.90;999.90;;;;;;;0.10;57.62;102773.75;5024700;27;97028;-75
2022/02/26 07:54:17;;;;;;;1999.90;999.90;;;;;;;0.14;57.32;102773.28;5020873;28;97653;-74
2022/02/26 07:56:44;;;;;;;1999.90;999.90;;;;;;;0.17;57.34;102773.56;5021912;28;97665;-74
2022/02/26 07:59:12;;;;;;;1999.90;999.90;;;;;;;0.23;56.86;102780.19;5022159;28;97123;-72
2022/02/26 08:01:40;;;;;;;1999.90;999.90;;;;;;;0.27;57.22;102795.41;5020700;28;99344;-70
2022/02/26 08:04:08;;;;;;;1999.90;999.90;;;;;;;0.30;56.98;102791.41;5019982;28;97653;-74
2022/02/26 08:06:40;;;;;;;1999.90;999.90;;;;;;;0.27;56.95;102800.66;5013740;27;99305;-71
2022/02/26 08:09:07;;;;;;;1999.90;999.90;;;;;;;0.32;56.88;102802.94;5019194;27;97829;-72
2022/02/26 08:11:39;;;;;;;1999.90;999.90;;;;;;;0.36;56.72;102796.31;5014637;28;97712;-70
2022/02/26 08:14:07;;;;;;;1999.90;999.90;;;;;;;0.42;56.37;102809.97;5018122;28;97844;-71
2022/02/26 08:16:35;;;;;;;1999.90;999.90;;;;;;;0.42;56.43;102813.50;5018819;27;98718;-71
2022/02/26 08:19:03;;;;;;;1999.90;999.90;;;;;;;0.40;56.76;102820.28;5022560;28;97172;-72
2022/02/26 08:21:34;;;;;;;1999.90;999.90;;;;;;;0.38;56.51;102831.38;5017492;28;98976;-71
2022/02/26 08:24:03;;;;;;;1999.90;999.90;;;;;;;0.38;56.58;102832.31;5012987;27;99105;-69
2022/02/26 08:26:31;;;;;;;1999.90;999.90;;;;;;;0.38;56.42;102837.56;5014817;28;99480;-71
2022/02/26 08:28:59;;;;;;;1999.90;999.90;;;;;;;0.46;56.31;102841.84;5016144;28;97626;-71
2022/02/26 08:31:27;;;;;;;1999.90;999.90;;;;;;;0.50;56.22;102841.34;5017606;28;98533;-68
2022/02/26 08:33:55;;;;;;;1999.90;999.90;;;;;;;0.55;56.11;102841.75;5018483;27;98452;-72
2022/02/26 08:36:23;;;;;;;1999.90;999.90;;;;;;;0.62;55.86;102849.41;5020671;28;97366;-71
2022/02/26 08:38:51;;;;;;;1999.90;999.90;;;;;;;0.66;56.33;102848.94;5017810;28;98689;-72
2022/02/26 08:41:20;;;;;;;1999.90;999.90;;;;;;;0.66;56.28;102846.31;5017100;28;97525;-68
2022/02/26 08:43:48;;;;;;;1999.90;999.90;;;;;;;0.93;55.18;102848.88;5015048;27;98990;-71
2022/02/26 08:46:16;;;;;;;1999.90;999.90;;;;;;;0.86;55.60;102856.94;5020683;28;98753;-72
2022/02/26 08:48:44;;;;;;;1999.90;999.90;;;;;;;0.88;55.92;102852.78;5035224;27;98492;-72
2022/02/26 08:51:11;;;;;;;1999.90;999.90;;;;;;;0.86;55.82;102851.72;5035129;27;98082;-71
2022/02/26 08:53:40;;;;;;;1999.90;999.90;;;;;;;0.86;55.93;102851.72;5023717;27;100308;-74
2022/02/26 08:56:07;;;;;;;1999.90;999.90;;;;;;;0.91;55.68;102860.91;5023940;28;97827;-73
2022/02/26 08:58:36;;;;;;;1999.90;999.90;;;;;;;0.94;56.09;102856.88;5019232;27;98259;-75
2022/02/26 09:01:07;;;;;;;1999.90;999.90;;;;;;;0.99;55.40;102860.88;5007474;28;98735;-72
2022/02/26 09:03:35;;;;;;;1999.90;999.90;;;;;;;1.29;54.77;102872.31;5010490;27;98005;-72
2022/02/26 09:06:04;;;;;;;1999.90;999.90;;;;;;;1.18;54.71;102873.94;5022169;28;100739;-71
2022/02/26 09:08:32;;;;;;;1999.90;999.90;;;;;;;1.17;54.72;102875.66;5023686;27;97117;-73
2022/02/26 09:10:59;;;;;;;1999.90;999.90;;;;;;;1.41;54.81;102871.75;5026898;28;97931;-75
2022/02/26 09:13:27;;;;;;;1999.90;999.90;;;;;;;1.28;55.26;102881.88;5023918;27;98288;-74
2022/02/26 09:16:00;;;;;;;1999.90;999.90;;;;;;;1.23;54.94;102884.88;5020691;28;98898;-75
2022/02/26 09:18:27;;;;;;;1999.90;999.90;;;;;;;1.18;54.56;102884.44;5012634;28;98096;-74
2022/02/26 09:20:56;;;;;;;1999.90;999.90;;;;;;;1.42;54.40;102896.25;5018068;28;98430;-70
2022/02/26 09:23:24;;;;;;;1999.90;999.90;;;;;;;1.23;54.77;102888.41;5018974;27;101257;-74
2022/02/26 09:25:51;;;;;;;1999.90;999.90;;;;;;;1.16;54.54;102880.75;5019737;28;99506;-73
2022/02/26 09:28:19;;;;;;;1999.90;999.90;;;;;;;1.08;55.50;102889.63;5023615;27;97240;-74
2022/02/26 09:30:47;;;;;;;1999.90;999.90;;;;;;;1.07;54.82;102890.38;5023960;27;97899;-74
2022/02/26 09:33:17;;;;;;;1999.90;999.90;;;;;;;1.06;54.93;102886.88;5023372;28;99630;-74
2022/02/26 09:35:44;;;;;;;1999.90;999.90;;;;;;;1.31;53.99;102883.84;5016990;28;99061;-75
2022/02/26 09:38:12;;;;;;;1999.90;999.90;;;;;;;1.12;55.01;102890.03;5020699;28;97765;-74
2022/02/26 09:40:40;;;;;;;1999.90;999.90;;;;;;;1.09;55.33;102891.44;5025642;28;96912;-72
2022/02/26 09:43:08;;;;;;;1999.90;999.90;;;;;;;1.12;55.25;102894.38;5024030;28;101380;-75
2022/02/26 09:45:36;;;;;;;1999.90;999.90;;;;;;;1.10;55.40;102899.44;5015754;28;100490;-70
2022/02/26 09:48:04;;;;;;;1999.90;999.90;;;;;;;1.10;55.26;102907.31;5020749;28;97100;-73
2022/02/26 09:50:33;;;;;;;1999.90;999.90;;;;;;;1.13;55.03;102904.06;5021508;28;97038;-74
2022/02/26 09:53:01;;;;;;;1999.90;999.90;;;;;;;1.13;55.40;102914.56;5021466;27;99937;-74
2022/02/26 09:55:29;;;;;;;1999.90;999.90;;;;;;;1.09;55.25;102910.72;5022127;28;97118;-73
2022/02/26 09:57:56;;;;;;;1999.90;999.90;;;;;;;1.06;54.95;102914.78;5022131;28;97136;-74
2022/02/26 10:00:24;;;;;;;1999.90;999.90;;;;;;;1.05;55.01;102912.94;5019466;27;97514;-73
2022/02/26 10:02:52;;;;;;;1999.90;999.90;;;;;;;1.08;55.16;102908.91;5018080;27;98658;-74
2022/02/26 10:05:20;;;;;;;1999.90;999.90;;;;;;;1.08;54.82;102913.22;5020732;27;97605;-73
2022/02/26 10:07:50;;;;;;;1999.90;999.90;;;;;;;1.08;54.88;102922.00;5023498;27;96787;-72
2022/02/26 10:10:24;;;;;;;1999.90;999.90;;;;;;;1.09;55.09;102922.91;5007795;28;97522;-74
2022/02/26 10:12:53;;;;;;;1999.90;999.90;;;;;;;1.06;55.03;102930.50;5024838;27;100349;-74
2022/02/26 10:15:25;;;;;;;1999.90;999.90;;;;;;;1.08;55.10;102932.50;5023816;28;97616;-74
2022/02/26 10:18:05;;;;;;;1999.90;999.90;;;;;;;1.09;54.84;102933.41;5025375;28;96984;-73
2022/02/26 10:20:34;;;;;;;1999.90;999.90;;;;;;;1.19;54.49;102943.97;5025356;28;97343;-74
2022/02/26 10:23:03;;;;;;;1999.90;999.90;;;;;;;1.21;54.91;102929.31;5025580;28;98927;-70
2022/02/26 10:25:31;;;;;;;1999.90;999.90;;;;;;;1.23;54.87;102938.25;5023039;28;100460;-73
2022/02/26 10:28:01;;;;;;;1999.90;999.90;;;;;;;1.28;54.87;102943.91;5024770;28;97529;-74
2022/02/26 10:30:33;;;;;;;1999.90;999.90;;;;;;;1.28;55.12;102936.97;5039750;27;98194;-73
2022/02/26 10:33:05;;;;;;;1999.90;999.90;;;;;;;1.33;54.44;102942.63;5023584;27;97583;-74
2022/02/26 10:35:35;;;;;;;1999.90;999.90;;;;;;;1.66;53.29;102937.84;5021708;28;99254;-73
2022/02/26 10:38:20;;;;;;;1999.90;999.90;;;;;;;1.60;54.23;102948.69;5021170;27;97114;-74
2022/02/26 10:40:52;;;;;;;1999.90;999.90;;;;;;;1.65;53.78;102944.78;5004719;27;97970;-73
2022/02/26 10:43:41;;;;;;;1999.90;999.90;;;;;;;1.62;53.95;102943.59;5024992;27;97682;-73
2022/02/26 10:46:21;;;;;;;1999.90;999.90;;;;;;;1.72;53.78;102941.97;5003835;28;103250;-74
2022/02/26 10:48:50;;;;;;;1999.90;999.90;;;;;;;1.79;54.13;102960.13;5040208;27;97770;-72
2022/02/26 10:51:20;;;;;;;1999.90;999.90;;;;;;;1.84;54.21;102945.69;5023343;28;97988;-72
2022/02/26 10:53:49;;;;;;;1999.90;999.90;;;;;;;1.87;53.84;102943.34;5022949;27;99815;-75
2022/02/26 10:56:17;;;;;;;1999.90;999.90;;;;;;;1.91;53.56;102937.59;5037898;27;98721;-76